Map

Track Data

SID SEASON NUMBER BASIN SUBBASIN NAME ISO_TIME NATURE LAT LON WMO_WIND WMO_PRES WMO_AGENCY TRACK_TYPE DIST2LAND LANDFALL IFLAG USA_AGENCY USA_ATCF_ID USA_LAT USA_LON USA_RECORD USA_STATUS USA_WIND USA_PRES USA_SSHS USA_R34_NE USA_R34_SE USA_R34_SW USA_R34_NW USA_R50_NE USA_R50_SE USA_R50_SW USA_R50_NW USA_R64_NE USA_R64_SE USA_R64_SW USA_R64_NW USA_POCI USA_ROCI USA_RMW USA_EYE TOKYO_LAT TOKYO_LON TOKYO_GRADE TOKYO_WIND TOKYO_PRES TOKYO_R50_DIR TOKYO_R50_LONG TOKYO_R50_SHORT TOKYO_R30_DIR TOKYO_R30_LONG TOKYO_R30_SHORT TOKYO_LAND CMA_LAT CMA_LON CMA_CAT CMA_WIND CMA_PRES HKO_LAT HKO_LON HKO_CAT HKO_WIND HKO_PRES NEWDELHI_LAT NEWDELHI_LON NEWDELHI_GRADE NEWDELHI_WIND NEWDELHI_PRES NEWDELHI_CI NEWDELHI_DP NEWDELHI_POCI REUNION_LAT REUNION_LON REUNION_TYPE REUNION_WIND REUNION_PRES REUNION_TNUM REUNION_CI REUNION_RMW REUNION_R34_NE REUNION_R34_SE REUNION_R34_SW REUNION_R34_NW REUNION_R50_NE REUNION_R50_SE REUNION_R50_SW REUNION_R50_NW REUNION_R64_NE REUNION_R64_SE REUNION_R64_SW REUNION_R64_NW BOM_LAT BOM_LON BOM_TYPE BOM_WIND BOM_PRES BOM_TNUM BOM_CI BOM_RMW BOM_R34_NE BOM_R34_SE BOM_R34_SW BOM_R34_NW BOM_R50_NE BOM_R50_SE BOM_R50_SW BOM_R50_NW BOM_R64_NE BOM_R64_SE BOM_R64_SW BOM_R64_NW BOM_ROCI BOM_POCI BOM_EYE BOM_POS_METHOD BOM_PRES_METHOD NADI_LAT NADI_LON NADI_CAT NADI_WIND NADI_PRES WELLINGTON_LAT WELLINGTON_LON WELLINGTON_WIND WELLINGTON_PRES DS824_LAT DS824_LON DS824_STAGE DS824_WIND DS824_PRES TD9636_LAT TD9636_LON TD9636_STAGE TD9636_WIND TD9636_PRES TD9635_LAT TD9635_LON TD9635_WIND TD9635_PRES TD9635_ROCI NEUMANN_LAT NEUMANN_LON NEUMANN_CLASS NEUMANN_WIND NEUMANN_PRES MLC_LAT MLC_LON MLC_CLASS MLC_WIND MLC_PRES USA_GUST BOM_GUST BOM_GUST_PER REUNION_GUST REUNION_GUST_PER USA_SEAHGT USA_SEARAD_NE USA_SEARAD_SE USA_SEARAD_SW USA_SEARAD_NW STORM_SPEED STORM_DIR
1998275N12113 1998 75 WP MM NOT_NAMED 1998-10-02 00:00:00 NR 12.0000 113.000 main 386 386 O_____________ jtwc_wp WP151998 12.0000 113.000 25 -1 7 44
1998275N12113 1998 75 WP MM NOT_NAMED 1998-10-02 03:00:00 NR 12.2525 113.245 main 403 403 P_____________ WP151998 12.2525 113.245 25 -1 9 33
1998275N12113 1998 75 WP MM NOT_NAMED 1998-10-02 06:00:00 TS 12.7500 113.500 main 434 434 O_O___________ jtwc_wp WP151998 12.5000 113.500 25 -1 13.5000 113.500 1 29 1002 9 29
1998275N12113 1998 75 WP MM NOT_NAMED 1998-10-02 09:00:00 TS 13.0217 113.676 main 455 455 P_P___________ WP151998 12.7425 113.765 25 -1 13.5800 113.498 1 29 1002 6 27
1998275N12113 1998 75 WP MM NOT_NAMED 1998-10-02 12:00:00 TS 13.3000 113.786 main 468 468 O_O___________ jtwc_wp WP151998 13.0000 114.000 25 -1 13.7000 113.500 1 29 1002 6 17
1998275N12113 1998 75 WP MM NOT_NAMED 1998-10-02 15:00:00 TS 13.5887 113.855 main 482 482 P_P___________ WP151998 13.2925 114.202 25 -1 13.8850 113.507 1 29 1001 6 11
1998275N12113 1998 75 WP MM NOT_NAMED 1998-10-02 18:00:00 TS 13.8500 113.900 main 489 489 O_O___________ jtwc_wp WP151998 13.6000 114.300 25 -1 14.1000 113.500 1 29 1000 5 3
1998275N12113 1998 75 WP MM NOT_NAMED 1998-10-02 21:00:00 TS 14.0962 113.859 main 494 484 P_P___________ WP151998 13.9075 114.245 25 -1 14.2850 113.472 1 29 1000 5 345
1998275N12113 1998 75 WP MM NOT_NAMED 1998-10-03 00:00:00 TS 14.3444 113.767 main 487 470 O_OO__________ jtwc_wp WP151998 14.2000 114.100 25 -1 14.5000 113.400 1 29 1000 14.3000 113.900 TD 25 1000 6 337
1998275N12113 1998 75 WP MM NOT_NAMED 1998-10-03 03:00:00 TS 14.6295 113.620 main 470 455 P_PP__________ WP151998 14.4575 113.972 27 -1 14.7925 113.273 1 29 1000 14.6476 113.610 TD 25 1000 7 329
1998275N12113 1998 75 WP MM NOT_NAMED 1998-10-03 06:00:00 TS 14.9273 113.409 main 455 440 O_OO__________ jtwc_wp WP151998 14.7000 113.800 30 -1 15.1000 113.100 1 29 1000 15.0000 113.300 TD 25 1000 8 322
1998275N12113 1998 75 WP MM NOT_NAMED 1998-10-03 09:00:00 TS 15.2267 113.141 main 433 415 P_PP__________ WP151998 14.9500 113.565 30 -1 15.3725 112.900 1 29 1000 15.3575 112.957 TD 27 998 8 318
1998275N12113 1998 75 WP MM NOT_NAMED 1998-10-03 12:00:00 TS 15.5000 112.867 main 417 392 O_OO__________ jtwc_wp WP151998 15.2000 113.300 30 -1 15.6000 112.700 1 29 1000 15.7000 112.600 TD 30 996 7 316
1998275N12113 1998 75 WP MM NOT_NAMED 1998-10-03 15:00:00 TS 15.7383 112.624 main 392 369 P_PP__________ WP151998 15.4424 113.065 30 -1 15.7575 112.550 1 29 1000 16.0149 112.257 TD 30 996 7 314
1998275N12113 1998 75 WP MM NOT_NAMED 1998-10-03 18:00:00 TS 15.9667 112.367 main 369 332 O_OO__________ jtwc_wp WP151998 15.7000 112.800 30 -1 15.9000 112.400 1 29 1000 16.3000 111.900 TD 30 996 7 312
1998275N12113 1998 75 WP MM NOT_NAMED 1998-10-03 21:00:00 TS 16.2191 112.067 main 332 285 P_PP__________ WP151998 15.9924 112.487 30 -1 16.1075 112.200 1 29 1000 16.5574 111.515 TD 30 996 8 309
1998275N12113 1998 75 WP MM NOT_NAMED 1998-10-04 00:00:00 TS 16.4667 111.733 main 278 241 O_OO__________ jtwc_wp WP151998 16.3000 112.100 30 -1 16.3000 112.000 1 29 1000 16.8000 111.100 TD 30 996 8 306
1998275N12113 1998 75 WP MM NOT_NAMED 1998-10-04 03:00:00 TS 16.6807 111.399 main 241 198 P_PP__________ WP151998 16.6000 111.622 30 -1 16.3847 111.910 1 29 997 17.0574 110.665 TD 30 996 8 302
1998275N12113 1998 75 WP MM NOT_NAMED 1998-10-04 06:00:00 TS 16.9000 111.000 main 198 140 O_OO__________ jtwc_wp WP151998 16.9000 111.100 30 -1 16.5000 111.700 1 29 995 17.3000 110.200 TD 30 996 10 299
1998275N12113 1998 75 WP MM NOT_NAMED 1998-10-04 09:00:00 TS 17.1667 110.492 main 140 94 P_PP__________ WP151998 17.2073 110.615 30 -1 16.7778 111.168 1 29 995 17.5150 109.692 TD 30 997 12 298
1998275N12113 1998 75 WP MM NOT_NAMED 1998-10-04 12:00:00 TS 17.4333 109.933 main 91 67 O_OO__________ jtwc_wp WP151998 17.5000 110.100 30 -1 17.1000 110.500 1 29 995 17.7000 109.200 TD 30 998 12 295
1998275N12113 1998 75 WP MM NOT_NAMED 1998-10-04 15:00:00 TS 17.6599 109.390 main 56 54 P_PP__________ WP151998 17.7649 109.515 30 -1 17.3575 109.877 1 29 996 17.8574 108.777 TD 30 998 11 293
1998275N12113 1998 75 WP MM NOT_NAMED 1998-10-04 18:00:00 TS 17.8667 108.867 main 56 54 O_OO__________ jtwc_wp WP151998 18.0000 108.900 30 -1 17.6000 109.300 1 29 998 18.0000 108.400 TD 30 998 10 293
1998275N12113 1998 75 WP MM NOT_NAMED 1998-10-04 21:00:00 TS 18.0740 108.390 main 54 54 P_PP__________ WP151998 18.2148 108.300 30 -1 17.8572 108.827 1 29 998 18.1499 108.042 TD 27 999 10 295
1998275N12113 1998 75 WP MM NOT_NAMED 1998-10-05 00:00:00 TS 18.2636 107.955 main 77 77 O_OO__________ jtwc_wp WP151998 18.4000 107.700 30 -1 18.1000 108.400 1 29 998 18.3000 107.700 TD 25 1000 9 293
1998275N12113 1998 75 WP MM NOT_NAMED 1998-10-05 03:00:00 TS 18.4391 107.469 main 119 84 P_PP__________ WP151998 18.5651 107.070 30 -1 18.3075 107.927 1 29 999 18.4502 107.353 TD 25 1000 10 290
1998275N12113 1998 75 WP MM NOT_NAMED 1998-10-05 06:00:00 TS 18.6000 107.000 main 84 64 O_OO__________ jtwc_wp WP151998 18.7000 106.500 30 -1 18.5000 107.500 1 29 1000 18.6000 107.000 TD 25 1000 9 292
1998275N12113 1998 75 WP MM NOT_NAMED 1998-10-05 09:00:00 TS 18.7611 106.612 main 74 67 P_P___________ WP151998 18.8148 106.047 30 -1 18.7073 107.177 1 29 1000 TD 7 297
1998275N12113 1998 75 WP MM NOT_NAMED 1998-10-05 12:00:00 TS 18.9000 106.386 main 67 53 O_O___________ jtwc_wp WP151998 18.9000 105.700 30 -1 18.9000 106.900 1 29 1000 5 305
1998275N12113 1998 75 WP MM NOT_NAMED 1998-10-05 15:00:00 TS 19.0292 106.210 main 53 30 P_P___________ WP151998 18.9576 105.430 27 -1 19.0650 106.600 1 26 1001 4 306
1998275N12113 1998 75 WP MM NOT_NAMED 1998-10-05 18:00:00 TS 19.1500 106.025 main 23 20 O_O___________ jtwc_wp WP151998 19.0000 105.200 25 -1 19.2000 106.300 1 23 1002 3 324
1998275N12113 1998 75 WP MM NOT_NAMED 1998-10-05 21:00:00 TS 19.3076 106.000 main 20 0 __P___________ WP151998 -1 19.3076 106.000 1 21 1003 4 309
1998275N12113 1998 75 WP MM NOT_NAMED 1998-10-06 00:00:00 TS 19.4000 105.700 main 0 __O___________ -1 19.4000 105.700 0 19 1004 6 288

Digital Typhoon Data and Search

About IBTrACS Database

This database is a web-friendly format of International Best Track Archive for Climate Stewardship (IBTrACS), a global best track data archive curated by NOAA dating back to 1842.

Updated: 2021-10-08